NY/NJ Local METAR Reports

 

KNYC - NYC/Central Park, NY, USA
Distance from Hoboken: NE 4mi, 7km
Updated: 08/14/2020 3:51am

 Wind from ENE
Wind: ENE 5 mph , 7 km/h
Temperature: 73°F , 23°C
Dew Point: 70°F , 21°C
Humidity: 89%
Barometer: 30.06 inHg , 1017.9 hPa
Visibility: 9 miles , 14 km
2020/08/14 07:51 KNYC 140751Z AUTO 06004KT 9SM 23/21 A3006 RMK AO2 SLP169 T02330211 $
KEWR - Newark, NJ, USA
Distance from Hoboken: WSW 8mi, 13km
Updated: 08/14/2020 3:51am
Mostly cloudy
Mostly cloudy
 Wind from NNE
Wind: NNE 6 mph , 9 km/h
Temperature: 73°F , 23°C
Dew Point: 72°F , 22°C
Humidity: 94%
Barometer: 30.02 inHg , 1016.6 hPa
Clouds: Mostly cloudy
Visibility: 9 miles , 14 km
Cloud details: Few Clouds 1500 ft
Mostly cloudy 11000 ft
Mostly cloudy 25000 ft
2020/08/14 07:51 KEWR 140751Z 03005KT 9SM FEW015 BKN110 BKN250 23/22 A3002 RMK AO2 SLP166 T02330217 $
 
KLGA - NYC/La Guardia, NY, USA
Distance from Hoboken: ENE 8mi, 13km
Updated: 08/14/2020 3:51am
Mostly cloudy
Mostly cloudy
 Wind from NE
Wind: NE 5 mph , 7 km/h
Temperature: 75°F , 24°C
Dew Point: 70°F , 21°C
Humidity: 83%
Barometer: 30.03 inHg , 1016.9 hPa
Clouds: Mostly cloudy
Visibility: 10 miles , 16 km
Cloud details: Few Clouds 1000 ft
Mostly cloudy 12000 ft
Mostly cloudy 25000 ft
2020/08/14 07:51 KLGA 140751Z 05004KT 10SM FEW010 BKN120 BKN250 24/21 A3003 RMK AO2 SLP167 T02440211
KTEB - Teterboro, NJ, USA
Distance from Hoboken: N 9mi, 14km
Updated: 08/14/2020 3:51am
Overcast
Overcast
 Wind from NNE
Wind: NNE 3 mph , 6 km/h
Temperature: 73°F , 23°C
Dew Point: 72°F , 22°C
Humidity: 94%
Barometer: 30.02 inHg , 1016.6 hPa
Clouds: Overcast
Visibility: 9 miles , 14 km
Cloud details: Partly cloudy 10000 ft
Overcast 12000 ft
2020/08/14 07:51 KTEB 140751Z 02003KT 9SM SCT100 OVC120 23/22 A3002 RMK AO2 SLP164 T02280217
 
KJFK - NYC/Jfk Arpt, NY, USA
Distance from Hoboken: ESE 16mi, 25km
Updated: 08/14/2020 3:51am
Overcast
Overcast
 Wind from NE
Wind: NE 7 mph , 11 km/h
Temperature: 73°F , 23°C
Dew Point: 72°F , 22°C
Humidity: 94%
Barometer: 30.03 inHg , 1016.9 hPa
Clouds: Overcast
Visibility: 10 miles , 16 km
Cloud details: Overcast 13000 ft
2020/08/14 07:51 KJFK 140751Z 05006KT 10SM OVC130 23/22 A3003 RMK AO2 SLP169 T02330217
KCDW - Caldwell, NJ, USA
Distance from Hoboken: NW 16mi, 26km
Updated: 08/14/2020 3:53am
Clear
Clear
 Wind from E
Wind: E 3 mph , 6 km/h
Temperature: 72°F , 22°C
Dew Point: 68°F , 20°C
Humidity: 88%
Barometer: 30.03 inHg , 1016.9 hPa
Clouds: Clear
Visibility: 10 miles , 16 km
2020/08/14 07:53 KCDW 140753Z AUTO 08003KT 10SM CLR 22/20 A3003 RMK AO2 SLP174 T02220200
 
KMMU - Morristown Muni, NJ, USA
Distance from Hoboken: W 20mi, 33km
Updated: 08/14/2020 4:15am
Mist, Clear
Mist, Clear
 Wind from calm
Wind: Calm
Temperature: 66°F , 19°C
Dew Point: 64°F , 18°C
Humidity: 94%
Barometer: 30.03 inHg , 1016.9 hPa
Summary: Mist
Clouds: Clear
Visibility: 2 1/2 miles , 4 km
2020/08/14 08:15 KMMU 140815Z AUTO 00000KT 2 1/2SM BR CLR 19/18 A3003 RMK AO2 VIS 1 1/4V5
KHPN - White Plains, NY, USA
Distance from Hoboken: NE 28mi, 46km
Updated: 08/14/2020 3:56am
Mostly cloudy
Mostly cloudy
 Wind from NNE
Wind: NNE 6 mph , 9 km/h
Temperature: 72°F , 22°C
Dew Point: 68°F , 20°C
Humidity: 88%
Barometer: 30.04 inHg , 1017.3 hPa
Clouds: Mostly cloudy
Visibility: 10 miles , 16 km
Cloud details: Mostly cloudy 12000 ft
2020/08/14 07:56 KHPN 140756Z 02005KT 10SM BKN120 22/20 A3004 RMK AO2 SLP167 T02170200
 
KFRG - Farmingdale, NY, USA
Distance from Hoboken: E 32mi, 52km
Updated: 08/14/2020 3:53am
Clear
Clear
 Wind from NE
Wind: NE 3 mph , 6 km/h
Temperature: 73°F , 23°C
Dew Point: 70°F , 21°C
Humidity: 89%
Barometer: 30.04 inHg , 1017.3 hPa
Clouds: Clear
Visibility: 10 miles , 16 km
2020/08/14 07:53 KFRG 140753Z AUTO 04003KT 10SM CLR 23/21 A3004 RMK AO2 SLP170 T02330211
KSMQ - Somerville, NJ, USA
Distance from Hoboken: WSW 34mi, 55km
Updated: 08/14/2020 4:22am
Mist, Partly cloudy
Mist, Partly cloudy
 Wind from NNW
Wind: NNW 3 mph , 6 km/h
Temperature: 70°F , 21°C
Dew Point: 66°F , 19°C
Humidity: 88%
Barometer: 30.01 inHg , 1016.3 hPa
Summary: Mist
Clouds: Partly cloudy
Visibility: 6 miles , 10 km
Cloud details: Partly cloudy 2200 ft
2020/08/14 08:22 KSMQ 140822Z AUTO 34003KT 6SM BR SCT022 21/19 A3001 RMK AO2 T02060194
 
KBLM - Belmar/Farmdale, NJ, USA
Distance from Hoboken: S 40mi, 64km
Updated: 08/14/2020 3:56am
Overcast
Overcast
 Wind from NE
Wind: NE 5 mph , 7 km/h
Temperature: 73°F , 23°C
Barometer: 30.03 inHg , 1016.9 hPa
Clouds: Overcast
Visibility: 8 miles , 13 km
Cloud details: Overcast 400 ft
2020/08/14 07:56 KBLM 140756Z AUTO 05004KT 8SM OVC004 23/ A3003 RMK AO2 SLP168 T0233
K12N - Andover, NJ, USA
Distance from Hoboken: WNW 41mi, 67km
Updated: 08/14/2020 3:54am

 Wind from calm
Wind: Calm
Temperature: 70°F , 21°C
Dew Point: 66°F , 19°C
Humidity: 88%
Barometer: 30.05 inHg , 1017.6 hPa
2020/08/14 07:54 K12N 140754Z AUTO 00000KT 21/19 A3005 RMK AO1 SLP168 T02060194
 
KFWN - Sussex, NJ, USA
Distance from Hoboken: NW 45mi, 72km
Updated: 08/14/2020 3:53am
Partly cloudy
Partly cloudy
 Wind from calm
Wind: Calm
Temperature: 66°F , 19°C
Dew Point: 64°F , 18°C
Humidity: 94%
Barometer: 30.05 inHg , 1017.6 hPa
Clouds: Partly cloudy
Visibility: 10 miles , 16 km
Cloud details: Partly cloudy 7000 ft
2020/08/14 07:53 KFWN 140753Z AUTO 00000KT 10SM SCT070 19/18 A3005 RMK AO2 SLP174 T01890178
KISP - Islip, NY, USA
Distance from Hoboken: E 49mi, 79km
Updated: 08/14/2020 3:56am
Clear
Clear
 Wind from NNE
Wind: NNE 6 mph , 9 km/h
Temperature: 73°F , 23°C
Dew Point: 72°F , 22°C
Humidity: 94%
Barometer: 30.03 inHg , 1016.9 hPa
Clouds: Clear
Visibility: 10 miles , 16 km
2020/08/14 07:56 KISP 140756Z AUTO 03005KT 10SM CLR 23/22 A3003 RMK AO2 SLP168 T02280222